Dashkhovuz, Turkmenistan

11:42 PM TMT on December 27, 2014 (GMT +0500)
Urgench | Change Station
CLOSE
Current Station
Airport
Location: Urgench,
Elevation: 322 ft
Nearby Weather Stations

Elev 322 ft 41.58 °N, 60.64 °E | Updated 12 minutes ago

Mist
Mist
32 °F
Feels Like 32 °F
N
2
Wind Variable Wind from Variable

Today
High -- | Low -- °F
--% Chance of Precip.
Yesterday
High -- | Low -- °F
Precip. -- in
8:26 AM 5:36 PM
Waxing Crescent, 39% visible
Pressure 30.09 in
Visibility -9999.0 miles
Clouds
Dew Point 28 °F
Humidity 87%
Rainfall 0.00 in
Snow Depth Not available.
UV Not available.
Pollen Not available.
Air Quality Not available.
Flu Activity Not available.
METAR UTNU 271830Z VRB02KT 4900 BR NSC M00/M02 Q1019 R31/CLRD70 NOSIG

More Conditions Fewer Conditions

Pressure 30.09 in
Visibility -9999.0 miles
Clouds
Dew Point 28 °F
Humidity 87%
Rainfall 0.00 in
Snow Depth Not available.
UV Not available.
Pollen Not available.
Air Quality Not available.
Flu Activity Not available.
METAR UTNU 271830Z VRB02KT 4900 BR NSC M00/M02 Q1019 R31/CLRD70 NOSIG

More Conditions Fewer Conditions

10-Day Weather Forecast

Almanac

Astronomy

Dec. 27, 2014 Rise Set
Actual Time
Civil Twilight
Nautical Twilight
Astronomical Twilight
Moon
Length of Visible Light
Length of Day
Tomorrow will be .
, % of the Moon is Illuminated

Today's Extremes

Country Highs Country Lows

Community

WunderPhotos

Upload Photos

1,780,988 photos uploaded!

WunderBlogs® & News

Nearby

Air Quality

  Air Quality AQ Index Pollutant
Not available.

Snow Depth

Station Depth Elevation

Earthquake Activity

City Distance Mag. Time & Date
Minimum magnitude displayed is 2.5.

Coastal Water Temperatures

Place Temperature

Nearby Weather Stations